createdAt,value
2022-08-12T00:02:04.158Z,4.53
2022-08-12T00:04:53.145Z,4.20
2022-08-12T00:07:39.499Z,3.88
2022-08-12T00:10:26.214Z,4.75
2022-08-12T00:13:12.595Z,3.72
2022-08-12T00:16:00.566Z,3.92
2022-08-12T00:18:45.664Z,3.90
2022-08-12T00:21:36.094Z,4.20
2022-08-12T00:24:22.169Z,3.90
2022-08-12T00:27:08.339Z,4.13
2022-08-12T00:29:54.028Z,3.95
2022-08-12T00:32:40.724Z,3.65
2022-08-12T00:35:36.740Z,4.13
2022-08-12T00:38:23.891Z,3.78
2022-08-12T00:41:09.914Z,4.07
2022-08-12T00:43:38.325Z,4.18
2022-08-12T00:46:24.396Z,3.80
2022-08-12T00:48:52.798Z,4.35
2022-08-12T00:51:20.908Z,4.10
2022-08-12T00:53:50.176Z,3.78
2022-08-12T00:56:21.109Z,4.20
2022-08-12T00:58:50.865Z,4.57
2022-08-12T01:01:20.229Z,4.25
2022-08-12T01:04:08.635Z,3.80
2022-08-12T01:06:55.845Z,4.10
2022-08-12T01:09:43.387Z,3.92
2022-08-12T01:12:13.248Z,4.15
2022-08-12T01:14:43.390Z,4.05
2022-08-12T01:17:11.697Z,4.72
2022-08-12T01:19:39.610Z,4.18
2022-08-12T01:22:31.408Z,3.85
2022-08-12T01:25:06.759Z,3.70
2022-08-12T01:27:36.498Z,4.45
2022-08-12T01:30:08.737Z,4.75
2022-08-12T01:32:40.791Z,4.50
2022-08-12T01:35:11.926Z,4.22
2022-08-12T01:37:48.502Z,4.65
2022-08-12T01:40:34.843Z,4.63
2022-08-12T01:43:07.968Z,4.35
2022-08-12T01:45:43.094Z,4.78
2022-08-12T01:48:20.439Z,5.03
2022-08-12T01:51:00.515Z,4.78
2022-08-12T01:53:50.409Z,4.90
2022-08-12T01:56:25.585Z,5.10
2022-08-12T01:59:15.820Z,5.07
2022-08-12T02:01:47.934Z,4.75
2022-08-12T02:04:42.564Z,4.70
2022-08-12T02:07:38.771Z,4.82
2022-08-12T02:10:51.343Z,4.30
2022-08-12T02:13:43.694Z,4.38
2022-08-12T02:16:31.668Z,4.38
2022-08-12T02:19:22.789Z,4.75
2022-08-12T02:21:59.929Z,4.50
2022-08-12T02:24:31.322Z,4.55
2022-08-12T02:27:01.799Z,5.10
2022-08-12T02:29:31.271Z,4.50
2022-08-12T02:31:59.879Z,4.93
2022-08-12T02:34:29.387Z,4.90
2022-08-12T02:37:03.662Z,4.70
2022-08-12T02:39:34.615Z,5.25
2022-08-12T02:42:06.689Z,4.70
2022-08-12T02:44:41.253Z,4.95
2022-08-12T02:47:55.739Z,5.10
2022-08-12T02:50:00.333Z,4.43
2022-08-12T02:52:28.713Z,5.47
2022-08-12T02:55:01.507Z,4.60
2022-08-12T02:57:32.756Z,5.28
2022-08-12T03:00:07.451Z,4.25
2022-08-12T03:02:38.943Z,5.05
2022-08-12T03:05:07.697Z,4.75
2022-08-12T03:07:59.451Z,4.57
2022-08-12T03:10:37.104Z,4.93
2022-08-12T03:13:08.138Z,4.75
2022-08-12T03:15:37.737Z,5.30
2022-08-12T03:18:26.041Z,4.72
2022-08-12T03:20:57.323Z,4.47
2022-08-12T03:23:29.723Z,4.82
2022-08-12T03:26:01.540Z,5.43
2022-08-12T03:28:48.647Z,5.00
2022-08-12T03:31:19.599Z,5.07
2022-08-12T03:34:01.778Z,4.22
2022-08-12T03:36:32.149Z,4.93
2022-08-12T03:39:35.644Z,5.18
2022-08-12T03:42:28.303Z,5.22
2022-08-12T03:45:31.102Z,5.25
2022-08-12T03:48:25.418Z,5.03
2022-08-12T03:51:12.173Z,5.40
2022-08-12T03:53:58.118Z,5.22
2022-08-12T03:56:43.691Z,5.20
2022-08-12T03:59:29.500Z,5.38
2022-08-12T04:01:58.363Z,5.30
2022-08-12T04:04:32.965Z,5.63
2022-08-12T04:07:01.850Z,6.28
2022-08-12T04:09:30.917Z,5.95
2022-08-12T04:12:16.460Z,5.10
2022-08-12T04:14:44.443Z,5.68
2022-08-12T04:17:13.103Z,5.35
2022-08-12T04:19:43.274Z,5.10
2022-08-12T04:22:12.503Z,4.60
2022-08-12T04:24:41.786Z,5.35
2022-08-12T04:27:11.516Z,5.22
2022-08-12T04:30:31.214Z,5.00
2022-08-12T04:32:28.455Z,5.10
2022-08-12T04:34:58.956Z,5.45
2022-08-12T04:37:27.374Z,5.35
2022-08-12T04:39:56.104Z,5.38
2022-08-12T04:42:26.170Z,5.32
2022-08-12T04:44:54.416Z,5.10
2022-08-12T04:47:24.379Z,5.20
2022-08-12T04:49:52.274Z,5.45
2022-08-12T04:52:21.696Z,4.85
2022-08-12T04:54:49.676Z,5.35
2022-08-12T04:57:17.522Z,5.90
2022-08-12T04:59:47.532Z,4.90
2022-08-12T05:02:20.950Z,5.43
2022-08-12T05:04:52.337Z,5.57
2022-08-12T05:07:24.041Z,5.03
2022-08-12T05:10:01.936Z,5.07
2022-08-12T05:12:36.348Z,5.10
2022-08-12T05:15:18.975Z,5.57
2022-08-12T05:17:55.513Z,5.25
2022-08-12T05:20:26.021Z,5.57
2022-08-12T05:23:12.939Z,5.20
2022-08-12T05:25:43.059Z,5.55
2022-08-12T05:28:12.944Z,5.25
2022-08-12T05:30:42.577Z,4.90
2022-08-12T05:33:11.760Z,5.30
2022-08-12T05:35:43.177Z,4.65
2022-08-12T05:38:32.347Z,4.90
2022-08-12T05:41:00.639Z,4.78
2022-08-12T05:43:28.921Z,4.43
2022-08-12T05:45:57.233Z,4.63
2022-08-12T05:48:26.713Z,4.60
2022-08-12T05:50:54.624Z,5.43
2022-08-12T05:53:23.882Z,5.05
2022-08-12T05:55:53.026Z,5.05
2022-08-12T05:58:22.713Z,4.70
2022-08-12T06:00:50.574Z,4.72
2022-08-12T06:03:19.664Z,6.25
2022-08-12T06:05:55.099Z,4.95
2022-08-12T06:08:26.022Z,4.15
2022-08-12T06:10:54.217Z,5.07
2022-08-12T06:13:28.091Z,5.03
2022-08-12T06:15:57.100Z,4.72
2022-08-12T06:18:29.305Z,4.78
2022-08-12T06:20:59.002Z,4.53
2022-08-12T06:23:31.191Z,4.80
2022-08-12T06:25:59.759Z,5.40
2022-08-12T06:28:30.436Z,4.32
2022-08-12T06:33:55.038Z,4.05
2022-08-12T06:36:30.034Z,4.00
2022-08-12T06:39:02.707Z,4.95
2022-08-12T06:42:05.045Z,4.05
2022-08-12T06:44:35.967Z,4.22
2022-08-12T06:47:03.969Z,4.00
2022-08-12T06:49:36.495Z,4.55
2022-08-12T06:54:35.332Z,4.80
2022-08-12T06:57:57.832Z,3.50
2022-08-12T06:59:51.576Z,3.95
2022-08-12T07:02:21.023Z,4.10
2022-08-12T07:04:48.976Z,3.72
2022-08-12T07:07:18.558Z,3.95
2022-08-12T07:10:01.582Z,4.45
2022-08-12T07:12:35.996Z,4.50
2022-08-12T07:15:03.947Z,4.40
2022-08-12T07:17:36.255Z,4.32
2022-08-12T07:20:05.703Z,6.63
2022-08-12T07:22:34.395Z,5.18
2022-08-12T07:25:21.297Z,5.47
2022-08-12T07:27:55.094Z,6.05
2022-08-12T07:30:24.003Z,4.80
2022-08-12T07:32:58.542Z,4.97
2022-08-12T07:35:30.319Z,5.53
2022-08-12T07:38:00.376Z,5.55
2022-08-12T07:40:30.774Z,5.50
2022-08-12T07:42:58.752Z,4.30
2022-08-12T07:45:26.685Z,5.38
2022-08-12T07:47:54.582Z,6.05
2022-08-12T07:50:23.913Z,4.95
2022-08-12T07:52:52.355Z,7.20
2022-08-12T07:55:20.282Z,7.00
2022-08-12T07:57:57.639Z,5.00
2022-08-12T08:00:29.613Z,4.97
2022-08-12T08:02:58.747Z,4.50
2022-08-12T08:05:28.852Z,4.80
2022-08-12T08:08:00.989Z,4.60
2022-08-12T08:10:29.654Z,4.30
2022-08-12T08:12:58.896Z,3.88
2022-08-12T08:16:01.241Z,3.45
2022-08-12T08:18:26.903Z,3.72
2022-08-12T08:20:57.276Z,3.83
2022-08-12T08:23:56.473Z,3.53
2022-08-12T08:26:27.205Z,3.47
2022-08-12T08:28:56.924Z,2.83
2022-08-12T08:31:24.891Z,3.15
2022-08-12T08:34:04.733Z,3.97
2022-08-12T08:36:38.909Z,2.90
2022-08-12T08:39:06.882Z,3.33
2022-08-12T08:42:18.109Z,3.50
2022-08-12T08:44:42.229Z,3.38
2022-08-12T08:47:12.634Z,3.28
2022-08-12T08:49:41.043Z,2.42
2022-08-12T08:52:10.743Z,2.28
2022-08-12T08:54:38.865Z,2.55
2022-08-12T08:57:09.168Z,2.70
2022-08-12T08:59:37.223Z,1.95
2022-08-12T09:02:07.672Z,1.63
2022-08-12T09:05:11.974Z,1.80
2022-08-12T09:07:51.957Z,1.63
2022-08-12T09:13:23.121Z,1.90
2022-08-12T09:15:56.108Z,1.90
2022-08-12T09:21:15.740Z,1.58
2022-08-12T09:26:33.846Z,1.58
2022-08-12T09:29:11.862Z,1.73
2022-08-12T09:32:03.916Z,1.80
2022-08-12T09:34:33.946Z,1.80
2022-08-12T09:37:20.349Z,2.00
2022-08-12T09:40:08.059Z,1.92
2022-08-12T09:43:16.619Z,1.70
2022-08-12T09:46:20.416Z,1.70
2022-08-12T09:48:40.153Z,2.10
2022-08-12T09:51:21.642Z,1.80
2022-08-12T09:54:05.962Z,1.75
2022-08-12T09:57:02.741Z,1.55
2022-08-12T10:00:13.525Z,1.90
2022-08-12T10:02:45.194Z,1.77
2022-08-12T10:05:02.818Z,1.70
2022-08-12T10:07:40.072Z,1.60
2022-08-12T10:10:25.126Z,1.70
2022-08-12T10:13:34.441Z,1.83
2022-08-12T10:16:08.076Z,2.03
2022-08-12T10:18:53.711Z,1.77
2022-08-12T10:21:35.883Z,1.95
2022-08-12T10:24:08.623Z,1.77
2022-08-12T10:26:55.108Z,1.90
2022-08-12T10:30:03.875Z,1.60
2022-08-12T10:33:02.248Z,1.70
2022-08-12T10:35:16.311Z,1.60
2022-08-12T10:38:34.807Z,1.80
2022-08-12T10:40:55.443Z,1.92
2022-08-12T10:43:55.055Z,1.60
2022-08-12T10:46:31.148Z,1.63
2022-08-12T10:49:06.244Z,1.90
2022-08-12T10:52:32.554Z,1.80
2022-08-12T10:54:40.794Z,1.85
2022-08-12T10:57:18.393Z,1.80
2022-08-12T11:00:30.875Z,1.65
2022-08-12T11:04:35.340Z,1.50
2022-08-12T11:07:06.192Z,1.60
2022-08-12T11:08:36.145Z,2.00
2022-08-12T11:11:13.946Z,1.80
2022-08-12T11:13:49.023Z,1.70
2022-08-12T11:16:21.612Z,1.77
2022-08-12T11:18:55.398Z,1.30
2022-08-12T11:21:39.581Z,1.30
2022-08-12T11:24:30.347Z,1.35
2022-08-12T11:27:00.010Z,1.40
2022-08-12T11:30:02.455Z,1.85
2022-08-12T11:32:18.045Z,1.20
2022-08-12T11:34:52.451Z,1.30
2022-08-12T11:37:26.345Z,1.40
2022-08-12T11:42:35.719Z,1.50
2022-08-12T11:45:05.717Z,1.40
2022-08-12T11:47:40.488Z,1.25
2022-08-12T11:51:14.872Z,1.30
2022-08-12T11:53:57.566Z,1.40
2022-08-12T12:12:52.380Z,1.20
2022-08-12T12:15:24.909Z,1.17
2022-08-12T12:17:55.918Z,1.73
2022-08-12T12:20:26.056Z,1.35
2022-08-12T12:22:55.663Z,1.33
2022-08-12T12:28:06.122Z,1.40
2022-08-12T12:33:01.104Z,1.25
2022-08-12T12:36:16.672Z,1.10
2022-08-12T12:38:17.536Z,1.40
2022-08-12T12:40:50.199Z,1.20
2022-08-12T12:43:28.898Z,1.15
2022-08-12T12:46:08.797Z,1.40
2022-08-12T12:48:41.396Z,1.30
2022-08-12T12:51:22.219Z,1.13
2022-08-12T12:54:09.920Z,1.13
2022-08-12T12:56:42.336Z,1.52
2022-08-12T12:59:56.478Z,1.40
2022-08-12T13:02:08.208Z,1.38
2022-08-12T13:04:38.298Z,0.90
2022-08-12T13:07:06.837Z,1.20
2022-08-12T13:09:36.315Z,1.17
2022-08-12T13:12:08.790Z,1.25
2022-08-12T13:14:39.636Z,1.02
2022-08-12T13:17:09.641Z,0.90
2022-08-12T13:19:45.188Z,0.93
2022-08-12T13:22:23.827Z,1.08
2022-08-12T13:24:56.508Z,0.80
2022-08-12T13:27:34.586Z,0.60
2022-08-12T13:30:11.526Z,0.77
2022-08-12T13:35:19.291Z,0.70
2022-08-12T13:37:57.474Z,0.57
2022-08-12T13:40:31.831Z,1.05
2022-08-12T13:43:01.886Z,0.80
2022-08-12T13:45:31.417Z,0.85
2022-08-12T13:48:21.371Z,0.60
2022-08-12T13:50:58.277Z,0.70
2022-08-12T13:53:40.297Z,0.70
2022-08-12T13:56:14.841Z,0.70
2022-08-12T13:58:49.098Z,0.82
2022-08-12T14:01:22.020Z,0.70
2022-08-12T14:03:51.968Z,12.50
2022-08-12T14:08:59.651Z,2.00
2022-08-12T14:11:28.168Z,0.88
2022-08-12T14:16:37.707Z,0.75
2022-08-12T14:19:22.013Z,0.70
2022-08-12T14:22:00.450Z,0.90
2022-08-12T14:24:35.321Z,0.60
2022-08-12T14:30:05.350Z,0.77
2022-08-12T14:32:35.226Z,0.63
2022-08-12T14:35:05.130Z,0.70
2022-08-12T14:37:56.367Z,0.60
2022-08-12T14:40:28.004Z,0.60
2022-08-12T14:42:57.308Z,0.50
2022-08-12T14:45:45.091Z,0.70
2022-08-12T14:48:15.154Z,0.60
2022-08-12T14:51:02.689Z,0.70
2022-08-12T14:59:00.994Z,0.70
2022-08-12T15:01:48.644Z,0.52
2022-08-12T15:04:17.256Z,0.70
2022-08-12T15:06:52.292Z,0.85
2022-08-12T15:09:29.286Z,0.80
2022-08-12T15:12:04.146Z,0.80
2022-08-12T15:17:00.034Z,1.10
2022-08-12T15:20:30.990Z,0.80
2022-08-12T15:22:38.685Z,1.00
2022-08-12T15:25:08.030Z,0.60
2022-08-12T15:30:31.546Z,1.00
2022-08-12T15:32:59.899Z,0.82
2022-08-12T15:38:09.988Z,1.13
2022-08-12T15:40:46.831Z,1.92
2022-08-12T15:48:23.641Z,1.00
2022-08-12T15:50:58.201Z,0.90
2022-08-12T15:53:40.077Z,1.00
2022-08-12T15:56:12.696Z,0.85
2022-08-12T15:58:42.533Z,1.10
2022-08-12T16:01:11.486Z,1.10
2022-08-12T16:06:12.757Z,1.00
2022-08-12T16:08:47.499Z,1.10
2022-08-12T16:13:44.354Z,1.00
2022-08-12T16:16:23.974Z,1.05
2022-08-12T16:18:59.646Z,1.23
2022-08-12T16:21:51.258Z,0.90
2022-08-12T16:24:20.449Z,0.90
2022-08-12T16:26:51.336Z,1.10
2022-08-12T16:29:26.437Z,0.90
2022-08-12T16:31:58.553Z,1.05
2022-08-12T16:34:42.229Z,0.95
2022-08-12T16:37:17.211Z,1.00
2022-08-12T16:40:01.831Z,0.98
2022-08-12T16:42:39.113Z,1.40
2022-08-12T16:45:13.722Z,1.20
2022-08-12T16:47:57.704Z,1.25
2022-08-12T16:52:56.972Z,1.30
2022-08-12T16:55:27.504Z,0.90
2022-08-12T16:58:28.028Z,1.00
2022-08-12T17:01:02.132Z,1.00
2022-08-12T17:03:32.456Z,1.10
2022-08-12T17:06:06.462Z,1.00
2022-08-12T17:08:36.014Z,1.38
2022-08-12T17:11:08.495Z,1.50
2022-08-12T17:13:36.550Z,1.40
2022-08-12T17:16:21.158Z,1.70
2022-08-12T17:18:56.849Z,0.93
2022-08-12T17:21:41.328Z,1.00
2022-08-12T17:24:19.670Z,1.05
2022-08-12T17:26:53.786Z,1.10
2022-08-12T17:29:24.201Z,1.00
2022-08-12T17:32:11.451Z,1.10
2022-08-12T17:34:57.012Z,1.00
2022-08-12T17:37:24.932Z,1.10
2022-08-12T17:40:12.631Z,1.10
2022-08-12T17:42:43.664Z,1.00
2022-08-12T17:45:19.478Z,1.10
2022-08-12T17:48:01.869Z,1.20
2022-08-12T17:53:02.965Z,1.17
2022-08-12T17:55:43.837Z,1.00
2022-08-12T17:58:16.679Z,1.38
2022-08-12T18:00:47.171Z,1.10
2022-08-12T18:04:05.090Z,1.00
2022-08-12T18:06:14.073Z,1.05
2022-08-12T18:08:53.641Z,1.10
2022-08-12T18:12:05.070Z,1.13
2022-08-12T18:14:31.988Z,1.35
2022-08-12T18:17:02.374Z,1.23
2022-08-12T18:22:01.735Z,1.30
2022-08-12T18:24:31.483Z,1.60
2022-08-12T18:27:01.720Z,2.17
2022-08-12T18:32:53.540Z,1.67
2022-08-12T18:35:11.112Z,1.35
2022-08-12T18:40:22.824Z,1.30
2022-08-12T18:42:54.414Z,1.98
2022-08-12T18:45:25.921Z,1.50
2022-08-12T18:48:14.214Z,1.38
2022-08-12T18:50:48.636Z,1.40
2022-08-12T18:54:05.461Z,1.10
2022-08-12T18:56:06.641Z,1.20
2022-08-12T18:58:59.858Z,1.05
2022-08-12T19:04:00.230Z,1.40
2022-08-12T19:06:36.345Z,1.35
2022-08-12T19:09:10.126Z,1.60
2022-08-12T19:11:56.457Z,2.00
2022-08-12T19:14:29.230Z,2.00
2022-08-12T19:16:58.998Z,1.60
2022-08-12T19:19:27.289Z,1.40
2022-08-12T19:22:05.839Z,1.52
2022-08-12T19:24:51.305Z,1.55
2022-08-12T19:27:20.547Z,1.48
2022-08-12T19:30:08.315Z,1.52
2022-08-12T19:32:39.387Z,1.60
2022-08-12T19:38:06.263Z,1.30
2022-08-12T19:40:38.485Z,1.70
2022-08-12T19:43:19.361Z,1.67
2022-08-12T19:48:21.635Z,1.40
2022-08-12T19:50:52.745Z,1.70
2022-08-12T19:53:22.986Z,1.40
2022-08-12T19:55:53.394Z,1.25
2022-08-12T19:58:23.305Z,1.70
2022-08-12T20:00:54.633Z,1.70
2022-08-12T20:03:38.006Z,1.80
2022-08-12T20:06:14.205Z,1.48
2022-08-12T20:08:49.255Z,1.40
2022-08-12T20:12:10.325Z,1.90
2022-08-12T20:14:12.641Z,1.90
2022-08-12T20:16:52.959Z,1.60
2022-08-12T20:19:52.862Z,1.40
2022-08-12T20:22:24.368Z,1.48
2022-08-12T20:24:58.232Z,1.60
2022-08-12T20:28:03.423Z,1.48
2022-08-12T20:30:52.305Z,1.38
2022-08-12T20:33:17.872Z,1.50
2022-08-12T20:36:14.071Z,1.58
2022-08-12T20:38:38.227Z,1.30
2022-08-12T20:41:16.749Z,1.58
2022-08-12T20:43:47.065Z,1.67
2022-08-12T20:46:15.538Z,2.53
2022-08-12T20:48:46.934Z,2.28
2022-08-12T20:51:23.387Z,1.70
2022-08-12T20:53:58.148Z,1.52
2022-08-12T20:56:32.840Z,1.20
2022-08-12T20:59:04.893Z,1.70
2022-08-12T21:01:46.684Z,1.48
2022-08-12T21:04:37.451Z,1.67
2022-08-12T21:07:09.090Z,1.70
2022-08-12T21:12:05.776Z,2.05
2022-08-12T21:14:59.068Z,1.98
2022-08-12T21:18:00.360Z,2.28
2022-08-12T21:20:22.415Z,2.35
2022-08-12T21:22:50.744Z,2.70
2022-08-12T21:25:18.824Z,2.47
2022-08-12T21:27:59.085Z,2.20
2022-08-12T21:30:37.465Z,2.17
2022-08-12T21:33:10.718Z,2.28
2022-08-12T21:35:44.139Z,2.45
2022-08-12T21:38:13.851Z,2.13
2022-08-12T21:40:52.095Z,2.40
2022-08-12T21:43:21.122Z,2.13
2022-08-12T21:46:00.896Z,2.17
2022-08-12T21:48:29.579Z,2.40
2022-08-12T21:50:59.397Z,2.25
2022-08-12T21:54:06.081Z,2.50
2022-08-12T21:58:41.005Z,2.65
2022-08-12T22:01:22.741Z,2.58
2022-08-12T22:06:43.935Z,3.20
2022-08-12T22:09:15.730Z,2.85
2022-08-12T22:11:49.272Z,3.28
2022-08-12T22:14:25.184Z,2.88
2022-08-12T22:16:55.011Z,2.95
2022-08-12T22:19:25.113Z,3.30
2022-08-12T22:21:58.725Z,3.13
2022-08-12T22:24:29.729Z,3.33
2022-08-12T22:26:59.352Z,3.35
2022-08-12T22:29:53.897Z,3.25
2022-08-12T22:32:21.849Z,3.40
2022-08-12T22:37:53.432Z,2.75
2022-08-12T22:40:23.987Z,2.60
2022-08-12T22:43:15.540Z,2.42
2022-08-12T22:46:01.612Z,2.60
2022-08-12T22:48:30.607Z,2.30
2022-08-12T22:50:59.273Z,2.60
2022-08-12T22:53:35.786Z,2.67
2022-08-12T22:56:07.106Z,2.67
2022-08-12T22:58:36.715Z,2.58
2022-08-12T23:01:10.894Z,2.53
2022-08-12T23:03:49.472Z,2.35
2022-08-12T23:06:20.204Z,2.20
2022-08-12T23:08:49.927Z,2.42
2022-08-12T23:11:23.551Z,2.83
2022-08-12T23:13:55.496Z,2.40
2022-08-12T23:16:31.174Z,2.95
2022-08-12T23:19:10.368Z,2.60
2022-08-12T23:22:04.871Z,2.38
2022-08-12T23:24:56.281Z,2.70
2022-08-12T23:27:50.173Z,2.67
2022-08-12T23:30:24.917Z,2.90
2022-08-12T23:33:00.074Z,3.00
2022-08-12T23:35:54.051Z,3.55
2022-08-12T23:38:30.794Z,2.92
2022-08-12T23:41:03.610Z,3.45
2022-08-12T23:43:38.912Z,3.42
2022-08-12T23:46:08.695Z,3.00
2022-08-12T23:48:37.572Z,3.00
2022-08-12T23:51:22.215Z,3.25
2022-08-12T23:53:54.894Z,3.17
2022-08-12T23:56:25.388Z,2.97
2022-08-12T23:58:57.369Z,2.80
